createdAt,value
2019-01-10T00:02:29.166Z,100045.81
2019-01-10T00:05:32.634Z,100053.36
2019-01-10T00:08:36.386Z,100053.91
2019-01-10T00:11:40.001Z,100057.32
2019-01-10T00:14:43.450Z,100057.87
2019-01-10T00:17:47.047Z,100061.83
2019-01-10T00:20:50.498Z,100065.88
2019-01-10T00:23:53.946Z,100068.98
2019-01-10T00:26:57.549Z,100068.52
2019-01-10T00:30:01.053Z,100072.11
2019-01-10T00:33:04.583Z,100073.03
2019-01-10T00:36:08.044Z,100078.80
2019-01-10T00:39:11.576Z,100085.39
2019-01-10T00:42:15.152Z,100089.35
2019-01-10T00:45:18.818Z,100093.67
2019-01-10T00:48:22.471Z,100094.05
2019-01-10T00:51:25.987Z,100095.77
2019-01-10T00:54:30.513Z,100106.69
2019-01-10T00:57:39.775Z,100111.97
2019-01-10T01:00:43.251Z,100119.52
2019-01-10T01:03:46.737Z,100123.48
2019-01-10T01:06:50.168Z,100126.11
2019-01-10T01:09:53.640Z,100132.22
2019-01-10T01:12:58.629Z,100133.17
2019-01-10T01:16:02.552Z,100146.28
2019-01-10T01:19:06.078Z,100150.33
2019-01-10T01:22:09.524Z,100153.42
2019-01-10T01:25:13.202Z,100157.78
2019-01-10T01:28:16.784Z,100165.70
2019-01-10T01:31:20.297Z,100165.30
2019-01-10T01:34:23.787Z,100170.20
2019-01-10T01:37:27.286Z,100174.71
2019-01-10T01:40:30.831Z,100182.17
2019-01-10T01:43:35.418Z,100188.77
2019-01-10T01:46:39.010Z,100195.08
2019-01-10T01:49:42.562Z,100191.98
2019-01-10T01:52:47.051Z,100195.08
2019-01-10T01:55:50.562Z,100196.03
2019-01-10T01:58:55.065Z,100200.45
2019-01-10T02:01:59.612Z,100207.04
2019-01-10T02:05:03.095Z,100211.38
2019-01-10T02:08:06.595Z,100215.23
2019-01-10T02:11:10.103Z,100224.20
2019-01-10T02:14:13.608Z,100219.78
2019-01-10T02:17:17.123Z,100218.38
2019-01-10T02:20:20.640Z,100220.52
2019-01-10T02:23:24.112Z,100223.53
2019-01-10T02:26:34.332Z,100224.48
2019-01-10T02:29:37.979Z,100220.52
2019-01-10T02:32:41.464Z,100226.28
2019-01-10T02:35:44.974Z,100226.17
2019-01-10T02:38:48.459Z,100232.39
2019-01-10T02:41:51.988Z,100236.35
2019-01-10T02:44:55.496Z,100240.69
2019-01-10T02:47:59.071Z,100256.52
2019-01-10T02:51:03.589Z,100252.95
2019-01-10T02:54:07.127Z,100254.83
2019-01-10T02:57:10.598Z,100263.60
2019-01-10T03:00:21.901Z,100265.01
2019-01-10T03:03:26.418Z,100267.19
2019-01-10T03:06:29.908Z,100268.97
2019-01-10T03:09:33.355Z,100282.16
2019-01-10T03:12:37.962Z,100282.70
2019-01-10T03:15:44.526Z,100279.69
2019-01-10T03:18:49.055Z,100280.64
2019-01-10T03:21:52.531Z,100291.20
2019-01-10T03:24:56.034Z,100283.28
2019-01-10T03:27:59.527Z,100291.65
2019-01-10T03:31:04.103Z,100291.56
2019-01-10T03:34:09.630Z,100296.47
2019-01-10T03:37:13.100Z,100286.83
2019-01-10T03:40:21.415Z,100289.47
2019-01-10T03:43:24.936Z,100296.06
2019-01-10T03:46:28.537Z,100300.43
2019-01-10T03:49:33.033Z,100299.11
2019-01-10T03:52:36.541Z,100303.44
2019-01-10T03:55:40.049Z,100308.72
2019-01-10T03:58:43.548Z,100311.36
2019-01-10T04:01:48.070Z,100310.98
2019-01-10T04:04:52.596Z,100314.00
2019-01-10T04:07:56.029Z,100316.63
2019-01-10T04:10:59.500Z,100322.86
2019-01-10T04:14:02.937Z,100324.55
2019-01-10T04:17:06.399Z,100331.60
2019-01-10T04:20:11.214Z,100340.38
2019-01-10T04:23:14.652Z,100336.42
2019-01-10T04:26:18.139Z,100346.98
2019-01-10T04:29:23.702Z,100346.61
2019-01-10T04:32:28.210Z,100350.16
2019-01-10T04:35:31.696Z,100360.25
2019-01-10T04:38:35.213Z,100359.80
2019-01-10T04:41:38.700Z,100370.27
2019-01-10T04:44:42.217Z,100374.77
2019-01-10T04:47:46.747Z,100370.52
2019-01-10T04:50:50.237Z,100375.80
2019-01-10T04:53:53.723Z,100384.66
2019-01-10T04:56:57.251Z,100385.89
2019-01-10T05:00:00.738Z,100385.41
2019-01-10T05:03:04.240Z,100382.77
2019-01-10T05:06:08.791Z,100388.99
2019-01-10T05:09:13.301Z,100390.77
2019-01-10T05:12:18.839Z,100399.92
2019-01-10T05:15:23.353Z,100397.77
2019-01-10T05:18:28.903Z,100398.59
2019-01-10T05:21:32.439Z,100399.92
2019-01-10T05:24:35.925Z,100409.53
2019-01-10T05:27:39.449Z,100412.58
2019-01-10T05:30:42.912Z,100421.89
2019-01-10T05:33:46.443Z,100417.45
2019-01-10T05:36:49.913Z,100423.67
2019-01-10T05:39:53.407Z,100426.68
2019-01-10T05:42:56.923Z,100428.00
2019-01-10T05:46:00.428Z,100428.00
2019-01-10T05:49:04.937Z,100432.36
2019-01-10T05:52:08.442Z,100431.58
2019-01-10T05:55:13.976Z,100437.72
2019-01-10T05:58:17.587Z,100436.41
2019-01-10T06:01:21.112Z,100439.42
2019-01-10T06:04:24.690Z,100440.81
2019-01-10T06:07:28.211Z,100439.05
2019-01-10T06:10:33.824Z,100443.45
2019-01-10T06:13:38.266Z,100440.06
2019-01-10T06:16:45.125Z,100450.54
2019-01-10T06:19:48.062Z,100454.02
2019-01-10T06:22:51.544Z,100459.38
2019-01-10T06:25:55.035Z,100465.56
2019-01-10T06:28:58.567Z,100464.19
2019-01-10T06:32:02.154Z,100466.45
2019-01-10T06:35:06.687Z,100473.92
2019-01-10T06:38:16.921Z,100482.66
2019-01-10T06:41:20.415Z,100477.43
2019-01-10T06:44:23.944Z,100480.52
2019-01-10T06:47:28.501Z,100479.69
2019-01-10T06:50:31.971Z,100481.84
2019-01-10T06:53:35.464Z,100493.59
2019-01-10T06:56:38.956Z,100498.12
2019-01-10T06:59:43.473Z,100492.84
2019-01-10T07:02:47.022Z,100497.17
2019-01-10T07:05:51.520Z,100508.67
2019-01-10T07:08:54.959Z,100506.03
2019-01-10T07:11:59.562Z,100509.98
2019-01-10T07:15:04.053Z,100517.95
2019-01-10T07:18:07.557Z,100523.19
2019-01-10T07:21:11.043Z,100530.66
2019-01-10T07:24:15.589Z,100532.84
2019-01-10T07:27:21.174Z,100535.89
2019-01-10T07:30:35.927Z,100542.98
2019-01-10T07:33:33.164Z,100544.67
2019-01-10T07:36:36.761Z,100544.72
2019-01-10T07:39:40.193Z,100546.93
2019-01-10T07:42:44.071Z,100546.93
2019-01-10T07:45:47.581Z,100553.09
2019-01-10T07:48:51.067Z,100553.95
2019-01-10T07:51:54.576Z,100551.77
2019-01-10T07:54:58.175Z,100553.09
2019-01-10T07:58:01.681Z,100564.09
2019-01-10T08:01:06.182Z,100571.18
2019-01-10T08:04:11.726Z,100572.05
2019-01-10T08:07:15.240Z,100577.28
2019-01-10T08:10:18.725Z,100579.47
2019-01-10T08:13:22.255Z,100576.45
2019-01-10T08:16:25.729Z,100587.02
2019-01-10T08:19:29.179Z,100588.86
2019-01-10T08:22:32.685Z,100601.07
2019-01-10T08:25:36.128Z,100595.80
2019-01-10T08:28:39.670Z,100605.73
2019-01-10T08:31:43.125Z,100616.67
2019-01-10T08:34:46.572Z,100612.18
2019-01-10T08:37:50.034Z,100618.78
2019-01-10T08:40:54.557Z,100622.28
2019-01-10T08:43:58.066Z,100624.28
2019-01-10T08:47:02.559Z,100624.84
2019-01-10T08:50:07.852Z,100629.48
2019-01-10T08:53:11.310Z,100638.27
2019-01-10T08:56:14.845Z,100641.81
2019-01-10T08:59:18.489Z,100639.58
2019-01-10T09:02:22.146Z,100651.38
2019-01-10T09:05:25.815Z,100653.16
2019-01-10T09:08:29.369Z,100659.98
2019-01-10T09:11:32.953Z,100659.07
2019-01-10T09:14:36.530Z,100665.26
2019-01-10T09:17:41.137Z,100666.12
2019-01-10T09:20:44.889Z,100667.44
2019-01-10T09:23:48.372Z,100668.84
2019-01-10T09:26:53.062Z,100678.45
2019-01-10T09:29:56.520Z,100667.14
2019-01-10T09:33:01.032Z,100677.55
2019-01-10T09:36:05.645Z,100687.69
2019-01-10T09:39:09.315Z,100689.80
2019-01-10T09:42:12.801Z,100691.20
2019-01-10T09:45:18.304Z,100690.74
2019-01-10T09:48:21.883Z,100704.77
2019-01-10T09:51:25.523Z,100710.92
2019-01-10T09:54:29.043Z,100708.28
2019-01-10T09:57:32.493Z,100709.98
2019-01-10T10:00:35.978Z,100717.82
2019-01-10T10:03:39.436Z,100718.53
2019-01-10T10:06:42.993Z,100725.89
2019-01-10T10:09:46.560Z,100722.49
2019-01-10T10:12:50.013Z,100731.63
2019-01-10T10:15:53.591Z,100730.80
2019-01-10T10:18:57.292Z,100734.19
2019-01-10T10:22:00.834Z,100730.80
2019-01-10T10:25:04.467Z,100734.45
2019-01-10T10:28:08.974Z,100747.57
2019-01-10T10:31:12.470Z,100744.38
2019-01-10T10:34:16.003Z,100748.33
2019-01-10T10:37:19.572Z,100743.05
2019-01-10T10:40:23.124Z,100756.25
2019-01-10T10:43:26.637Z,100750.03
2019-01-10T10:46:31.118Z,100759.83
2019-01-10T10:49:34.733Z,100755.64
2019-01-10T10:52:41.284Z,100755.16
2019-01-10T10:55:44.814Z,100752.67
2019-01-10T10:58:48.310Z,100753.08
2019-01-10T11:01:51.803Z,100749.88
2019-01-10T11:04:55.427Z,100749.88
2019-01-10T11:07:59.008Z,100748.56
2019-01-10T11:11:02.641Z,100755.16
2019-01-10T11:14:06.196Z,100749.20
2019-01-10T11:17:09.713Z,100749.13
2019-01-10T11:20:15.452Z,100758.73
2019-01-10T11:23:18.975Z,100756.25
2019-01-10T11:26:22.458Z,100755.72
2019-01-10T11:29:25.985Z,100763.30
2019-01-10T11:32:29.556Z,100757.95
2019-01-10T11:35:33.196Z,100756.63
2019-01-10T11:38:36.679Z,100754.41
2019-01-10T11:41:40.168Z,100756.89
2019-01-10T11:44:43.720Z,100754.17
2019-01-10T11:47:47.367Z,100751.05
2019-01-10T11:50:56.807Z,100746.48
2019-01-10T11:54:00.327Z,100749.58
2019-01-10T11:57:03.850Z,100748.18
2019-01-10T12:00:11.035Z,100751.27
2019-01-10T12:03:15.532Z,100749.95
2019-01-10T12:06:19.087Z,100741.50
2019-01-10T12:09:22.749Z,100747.73
2019-01-10T12:12:26.232Z,100739.31
2019-01-10T12:15:29.741Z,100741.13
2019-01-10T12:18:33.224Z,100740.19
2019-01-10T12:21:36.756Z,100739.80
2019-01-10T12:24:41.285Z,100740.72
2019-01-10T12:27:44.877Z,100742.03
2019-01-10T12:30:48.548Z,100742.59
2019-01-10T12:33:52.180Z,100744.83
2019-01-10T12:37:01.650Z,100745.39
2019-01-10T12:40:06.040Z,100742.75
2019-01-10T12:43:09.665Z,100739.24
2019-01-10T12:46:13.153Z,100746.41
2019-01-10T12:49:16.868Z,100743.28
2019-01-10T12:52:21.369Z,100743.42
2019-01-10T12:55:24.990Z,100753.08
2019-01-10T12:58:28.888Z,100763.56
2019-01-10T13:01:32.517Z,100758.73
2019-01-10T13:04:36.046Z,100759.68
2019-01-10T13:07:39.519Z,100764.96
2019-01-10T13:10:43.027Z,100759.12
2019-01-10T13:13:46.569Z,100755.57
2019-01-10T13:16:50.214Z,100751.53
2019-01-10T13:19:53.739Z,100766.36
2019-01-10T13:22:57.221Z,100773.03
2019-01-10T13:26:00.832Z,100772.55
2019-01-10T13:29:04.703Z,100785.22
2019-01-10T13:32:08.355Z,100774.12
2019-01-10T13:35:12.122Z,100776.36
2019-01-10T13:38:15.754Z,100782.95
2019-01-10T13:41:19.346Z,100781.26
2019-01-10T13:44:22.971Z,100783.90
2019-01-10T13:47:26.585Z,100790.50
2019-01-10T13:50:31.384Z,100788.39
2019-01-10T13:53:35.215Z,100800.69
2019-01-10T13:56:39.094Z,100799.67
2019-01-10T13:59:42.702Z,100797.10
2019-01-10T14:02:46.199Z,100804.08
2019-01-10T14:05:49.766Z,100801.59
2019-01-10T14:08:53.431Z,100811.31
2019-01-10T14:11:57.008Z,100814.03
2019-01-10T14:15:00.640Z,100817.54
2019-01-10T14:18:05.950Z,100815.36
2019-01-10T14:21:10.518Z,100817.99
2019-01-10T14:24:14.035Z,100815.42
2019-01-10T14:27:17.525Z,100820.41
2019-01-10T14:30:26.090Z,100820.41
2019-01-10T14:33:29.713Z,100820.33
2019-01-10T14:36:33.329Z,100826.44
2019-01-10T14:39:36.914Z,100827.69
2019-01-10T14:42:40.617Z,100829.87
2019-01-10T14:45:44.406Z,100828.55
2019-01-10T14:48:47.971Z,100832.37
2019-01-10T14:51:51.604Z,100832.75
2019-01-10T14:54:55.175Z,100828.78
2019-01-10T14:57:58.646Z,100834.14
2019-01-10T15:01:03.182Z,100835.39
2019-01-10T15:04:06.695Z,100841.53
2019-01-10T15:07:11.514Z,100840.29
2019-01-10T15:10:15.507Z,100840.29
2019-01-10T15:13:19.124Z,100846.96
2019-01-10T15:16:24.779Z,100847.34
2019-01-10T15:19:28.264Z,100851.69
2019-01-10T15:22:31.790Z,100854.25
2019-01-10T15:25:35.294Z,100854.81
2019-01-10T15:28:38.784Z,100860.55
2019-01-10T15:31:42.331Z,100860.62
2019-01-10T15:34:45.791Z,100859.78
2019-01-10T15:37:49.330Z,100867.36
2019-01-10T15:40:52.894Z,100868.23
2019-01-10T15:43:56.500Z,100871.73
2019-01-10T15:47:01.025Z,100869.62
2019-01-10T15:50:08.079Z,100865.28
2019-01-10T15:53:11.714Z,100868.75
2019-01-10T15:56:15.212Z,100875.42
2019-01-10T15:59:18.711Z,100876.92
2019-01-10T16:02:22.310Z,100882.20
2019-01-10T16:05:26.113Z,100886.06
2019-01-10T16:08:29.617Z,100891.75
2019-01-10T16:11:33.230Z,100889.11
2019-01-10T16:14:36.831Z,100895.64
2019-01-10T16:17:40.330Z,100895.09
2019-01-10T16:20:43.829Z,100895.57
2019-01-10T16:23:48.373Z,100896.82
2019-01-10T16:26:51.904Z,100895.03
2019-01-10T16:29:55.343Z,100900.55
2019-01-10T16:32:58.878Z,100903.45
2019-01-10T16:36:02.352Z,100896.30
2019-01-10T16:39:08.009Z,100898.94
2019-01-10T16:42:12.652Z,100898.00
2019-01-10T16:45:22.014Z,100900.91
2019-01-10T16:48:25.610Z,100905.25
2019-01-10T16:51:29.087Z,100909.20
2019-01-10T16:54:33.700Z,100906.80
2019-01-10T16:57:37.373Z,100904.16
2019-01-10T17:00:40.801Z,100902.69
2019-01-10T17:03:44.319Z,100907.41
2019-01-10T17:06:48.835Z,100907.52
2019-01-10T17:09:52.379Z,100914.44
2019-01-10T17:12:56.948Z,100917.59
2019-01-10T17:16:01.597Z,100913.39
2019-01-10T17:19:05.120Z,100920.86
2019-01-10T17:22:08.630Z,100924.82
2019-01-10T17:25:12.164Z,100924.82
2019-01-10T17:28:16.631Z,100926.14
2019-01-10T17:31:20.102Z,100928.37
2019-01-10T17:34:24.687Z,100930.10
2019-01-10T17:37:28.258Z,100932.19
2019-01-10T17:40:31.883Z,100926.14
2019-01-10T17:43:35.374Z,100927.46
2019-01-10T17:46:39.877Z,100931.80
2019-01-10T17:49:43.435Z,100938.41
2019-01-10T17:52:47.906Z,100942.37
2019-01-10T17:55:52.438Z,100948.52
2019-01-10T17:58:56.971Z,100941.44
2019-01-10T18:02:00.464Z,100946.72
2019-01-10T18:05:04.458Z,100948.45
2019-01-10T18:08:08.191Z,100955.05
2019-01-10T18:11:11.779Z,100953.73
2019-01-10T18:14:15.280Z,100953.73
2019-01-10T18:17:19.817Z,100957.69
2019-01-10T18:20:25.833Z,100955.05
2019-01-10T18:23:29.486Z,100951.92
2019-01-10T18:26:33.987Z,100963.36
2019-01-10T18:29:37.785Z,100958.08
2019-01-10T18:32:41.442Z,100966.94
2019-01-10T18:35:44.909Z,100959.02
2019-01-10T18:38:48.416Z,100964.12
2019-01-10T18:41:51.909Z,100966.00
2019-01-10T18:44:55.497Z,100964.22
2019-01-10T18:47:59.143Z,100977.33
2019-01-10T18:51:02.601Z,100973.47
2019-01-10T18:54:06.140Z,100972.59
2019-01-10T18:57:09.622Z,100974.69
2019-01-10T19:00:16.290Z,100967.77
2019-01-10T19:03:19.944Z,100971.28
2019-01-10T19:06:23.395Z,100979.52
2019-01-10T19:09:26.892Z,100977.33
2019-01-10T19:12:30.346Z,100983.93
2019-01-10T19:15:33.919Z,100985.25
2019-01-10T19:18:37.454Z,100979.13
2019-01-10T19:21:40.903Z,100985.11
2019-01-10T19:24:44.432Z,100982.09
2019-01-10T19:27:47.945Z,100985.11
2019-01-10T19:30:52.477Z,100988.69
2019-01-10T19:33:56.267Z,100985.03
2019-01-10T19:36:59.857Z,100983.27
2019-01-10T19:40:05.366Z,100987.67
2019-01-10T19:43:08.926Z,100990.39
2019-01-10T19:46:12.413Z,100986.77
2019-01-10T19:49:16.014Z,100990.31
2019-01-10T19:52:20.614Z,100985.11
2019-01-10T19:55:24.151Z,100987.16
2019-01-10T19:58:27.680Z,100991.19
2019-01-10T20:01:31.648Z,100993.83
2019-01-10T20:04:35.241Z,100997.34
2019-01-10T20:07:38.764Z,100996.92
2019-01-10T20:10:42.282Z,101003.52
2019-01-10T20:13:45.750Z,100997.80
2019-01-10T20:16:49.346Z,101001.75
2019-01-10T20:19:52.966Z,101002.13
2019-01-10T20:22:58.065Z,101000.81
2019-01-10T20:26:01.597Z,101007.42
2019-01-10T20:29:05.210Z,101007.80
2019-01-10T20:32:08.702Z,101014.02
2019-01-10T20:35:12.326Z,101006.48
2019-01-10T20:38:16.959Z,101008.73
2019-01-10T20:41:20.558Z,101018.37
2019-01-10T20:44:25.110Z,101007.03
2019-01-10T20:47:29.587Z,101011.77
2019-01-10T20:50:34.137Z,101009.61
2019-01-10T20:53:37.616Z,101006.09
2019-01-10T20:56:41.140Z,101006.48
2019-01-10T20:59:44.629Z,101007.80
2019-01-10T21:02:48.234Z,101012.17
2019-01-10T21:05:52.895Z,101019.69
2019-01-10T21:08:56.356Z,101013.02
2019-01-10T21:12:01.898Z,101021.49
2019-01-10T21:15:08.380Z,101027.72
2019-01-10T21:18:12.002Z,101023.09
2019-01-10T21:21:15.500Z,101022.23
2019-01-10T21:24:19.007Z,101025.05
2019-01-10T21:27:22.476Z,101025.95
2019-01-10T21:30:26.090Z,101020.81
2019-01-10T21:33:29.828Z,101020.42
2019-01-10T21:36:33.330Z,101017.92
2019-01-10T21:39:38.934Z,101017.55
2019-01-10T21:42:42.461Z,101018.86
2019-01-10T21:45:45.958Z,101022.97
2019-01-10T21:48:49.476Z,101026.55
2019-01-10T21:51:52.945Z,101033.22
2019-01-10T21:54:56.459Z,101032.77
2019-01-10T21:58:00.755Z,101029.33
2019-01-10T22:01:05.303Z,101024.98
2019-01-10T22:04:09.810Z,101028.45
2019-01-10T22:07:13.299Z,101024.18
2019-01-10T22:10:16.822Z,101030.39
2019-01-10T22:13:20.370Z,101024.70
2019-01-10T22:16:23.834Z,101018.09
2019-01-10T22:19:28.347Z,101022.48
2019-01-10T22:22:31.845Z,101025.64
2019-01-10T22:25:36.363Z,101021.74
2019-01-10T22:28:41.912Z,101025.25
2019-01-10T22:31:45.414Z,101018.72
2019-01-10T22:34:49.948Z,101016.95
2019-01-10T22:37:53.447Z,101016.53
2019-01-10T22:40:56.950Z,101014.77
2019-01-10T22:44:00.742Z,101011.25
2019-01-10T22:47:05.431Z,101016.53
2019-01-10T22:50:10.415Z,101013.89
2019-01-10T22:53:13.920Z,101022.75
2019-01-10T22:56:17.540Z,101021.50
2019-01-10T22:59:21.243Z,101021.95
2019-01-10T23:02:24.934Z,101022.89
2019-01-10T23:05:28.438Z,101019.48
2019-01-10T23:08:32.227Z,101022.89
2019-01-10T23:11:36.100Z,101028.30
2019-01-10T23:14:39.722Z,101026.98
2019-01-10T23:17:52.633Z,101026.98
2019-01-10T23:21:00.239Z,101020.94
2019-01-10T23:24:14.425Z,101018.75
2019-01-10T23:27:17.941Z,101020.52
2019-01-10T23:30:44.570Z,101025.42
2019-01-10T23:33:48.001Z,101021.45
2019-01-10T23:36:52.175Z,101018.89
2019-01-10T23:39:56.338Z,101018.81
2019-01-10T23:43:00.810Z,101019.82
2019-01-10T23:46:05.670Z,101018.05
2019-01-10T23:49:09.114Z,101021.21
2019-01-10T23:52:12.794Z,101018.57
2019-01-10T23:55:17.310Z,101014.68
2019-01-10T23:58:21.057Z,101007.63
